sensor_id;sensor_type;location;lat;lon;timestamp;P1;durP1;ratioP1;P2;durP2;ratioP2
12129;SDS011;6128;59.340;18.040;2023-02-23T00:01:12;4.13;;;3.30;;
12129;SDS011;6128;59.340;18.040;2023-02-23T00:03:41;3.70;;;3.30;;
12129;SDS011;6128;59.340;18.040;2023-02-23T00:06:08;4.13;;;3.40;;
12129;SDS011;6128;59.340;18.040;2023-02-23T00:08:36;4.17;;;3.77;;
12129;SDS011;6128;59.340;18.040;2023-02-23T00:11:04;3.40;;;3.10;;
12129;SDS011;6128;59.340;18.040;2023-02-23T00:13:32;3.57;;;3.23;;
12129;SDS011;6128;59.340;18.040;2023-02-23T00:16:05;3.67;;;2.97;;
12129;SDS011;6128;59.340;18.040;2023-02-23T00:18:34;6.33;;;3.00;;
12129;SDS011;6128;59.340;18.040;2023-02-23T00:21:12;5.77;;;3.10;;
12129;SDS011;6128;59.340;18.040;2023-02-23T00:23:42;4.27;;;3.10;;
12129;SDS011;6128;59.340;18.040;2023-02-23T00:26:13;3.57;;;3.27;;
12129;SDS011;6128;59.340;18.040;2023-02-23T00:28:41;2.83;;;2.63;;
12129;SDS011;6128;59.340;18.040;2023-02-23T00:31:09;4.50;;;2.80;;
12129;SDS011;6128;59.340;18.040;2023-02-23T00:33:38;3.13;;;2.73;;
12129;SDS011;6128;59.340;18.040;2023-02-23T00:36:13;3.63;;;2.70;;
12129;SDS011;6128;59.340;18.040;2023-02-23T00:38:40;3.60;;;2.70;;
12129;SDS011;6128;59.340;18.040;2023-02-23T00:41:10;2.63;;;2.43;;
12129;SDS011;6128;59.340;18.040;2023-02-23T00:43:41;2.77;;;2.10;;
12129;SDS011;6128;59.340;18.040;2023-02-23T00:46:11;2.50;;;2.30;;
12129;SDS011;6128;59.340;18.040;2023-02-23T00:48:42;2.60;;;2.37;;
12129;SDS011;6128;59.340;18.040;2023-02-23T00:51:09;2.30;;;2.10;;
12129;SDS011;6128;59.340;18.040;2023-02-23T00:53:37;3.10;;;2.00;;
12129;SDS011;6128;59.340;18.040;2023-02-23T00:56:05;2.27;;;2.00;;
12129;SDS011;6128;59.340;18.040;2023-02-23T00:58:33;2.70;;;1.90;;
12129;SDS011;6128;59.340;18.040;2023-02-23T01:01:00;4.33;;;2.20;;
12129;SDS011;6128;59.340;18.040;2023-02-23T01:03:28;2.43;;;1.93;;
12129;SDS011;6128;59.340;18.040;2023-02-23T01:05:59;3.27;;;2.20;;
12129;SDS011;6128;59.340;18.040;2023-02-23T01:08:29;2.20;;;1.60;;
12129;SDS011;6128;59.340;18.040;2023-02-23T01:10:56;2.87;;;2.00;;
12129;SDS011;6128;59.340;18.040;2023-02-23T01:13:24;1.70;;;1.60;;
12129;SDS011;6128;59.340;18.040;2023-02-23T01:15:52;1.93;;;1.70;;
12129;SDS011;6128;59.340;18.040;2023-02-23T01:18:19;1.50;;;1.40;;
12129;SDS011;6128;59.340;18.040;2023-02-23T01:20:47;1.80;;;1.70;;
12129;SDS011;6128;59.340;18.040;2023-02-23T01:23:16;2.10;;;1.60;;
12129;SDS011;6128;59.340;18.040;2023-02-23T01:25:44;2.23;;;1.80;;
12129;SDS011;6128;59.340;18.040;2023-02-23T01:28:12;2.20;;;2.03;;
12129;SDS011;6128;59.340;18.040;2023-02-23T01:30:39;1.90;;;1.80;;
12129;SDS011;6128;59.340;18.040;2023-02-23T01:33:06;1.80;;;1.60;;
12129;SDS011;6128;59.340;18.040;2023-02-23T01:35:34;1.87;;;1.50;;
12129;SDS011;6128;59.340;18.040;2023-02-23T01:38:01;3.63;;;2.00;;
12129;SDS011;6128;59.340;18.040;2023-02-23T01:40:30;1.67;;;1.50;;
12129;SDS011;6128;59.340;18.040;2023-02-23T01:43:09;1.70;;;1.60;;
12129;SDS011;6128;59.340;18.040;2023-02-23T01:45:40;2.33;;;1.63;;
12129;SDS011;6128;59.340;18.040;2023-02-23T01:48:11;2.27;;;1.60;;
12129;SDS011;6128;59.340;18.040;2023-02-23T01:50:43;2.03;;;1.83;;
12129;SDS011;6128;59.340;18.040;2023-02-23T01:53:14;2.27;;;1.93;;
12129;SDS011;6128;59.340;18.040;2023-02-23T01:55:44;1.87;;;1.77;;
12129;SDS011;6128;59.340;18.040;2023-02-23T01:58:14;1.90;;;1.27;;
12129;SDS011;6128;59.340;18.040;2023-02-23T02:00:47;2.27;;;2.07;;
12129;SDS011;6128;59.340;18.040;2023-02-23T02:03:18;1.70;;;1.60;;
12129;SDS011;6128;59.340;18.040;2023-02-23T02:05:52;1.50;;;1.40;;
12129;SDS011;6128;59.340;18.040;2023-02-23T02:08:21;3.33;;;1.60;;
12129;SDS011;6128;59.340;18.040;2023-02-23T02:10:50;2.20;;;1.70;;
12129;SDS011;6128;59.340;18.040;2023-02-23T02:13:20;1.70;;;1.60;;
12129;SDS011;6128;59.340;18.040;2023-02-23T02:16:01;3.13;;;1.97;;
12129;SDS011;6128;59.340;18.040;2023-02-23T02:18:52;2.17;;;1.97;;
12129;SDS011;6128;59.340;18.040;2023-02-23T02:24:42;1.80;;;1.60;;
12129;SDS011;6128;59.340;18.040;2023-02-23T02:27:53;1.70;;;1.60;;
12129;SDS011;6128;59.340;18.040;2023-02-23T02:30:46;1.80;;;1.70;;
12129;SDS011;6128;59.340;18.040;2023-02-23T02:36:48;2.80;;;2.27;;
12129;SDS011;6128;59.340;18.040;2023-02-23T02:39:35;2.23;;;2.07;;
12129;SDS011;6128;59.340;18.040;2023-02-23T02:42:14;2.30;;;2.00;;
12129;SDS011;6128;59.340;18.040;2023-02-23T02:44:49;3.20;;;2.17;;
12129;SDS011;6128;59.340;18.040;2023-02-23T02:47:21;2.37;;;2.17;;
12129;SDS011;6128;59.340;18.040;2023-02-23T02:49:56;2.53;;;2.00;;
12129;SDS011;6128;59.340;18.040;2023-02-23T02:52:32;1.70;;;1.60;;
12129;SDS011;6128;59.340;18.040;2023-02-23T02:55:08;1.87;;;1.77;;
12129;SDS011;6128;59.340;18.040;2023-02-23T02:57:40;1.90;;;1.80;;
12129;SDS011;6128;59.340;18.040;2023-02-23T03:00:13;2.17;;;1.97;;
12129;SDS011;6128;59.340;18.040;2023-02-23T03:03:00;3.43;;;2.43;;
12129;SDS011;6128;59.340;18.040;2023-02-23T03:05:46;2.23;;;2.03;;
12129;SDS011;6128;59.340;18.040;2023-02-23T03:08:36;2.20;;;2.00;;
12129;SDS011;6128;59.340;18.040;2023-02-23T03:11:24;2.43;;;2.00;;
12129;SDS011;6128;59.340;18.040;2023-02-23T03:14:21;2.43;;;1.83;;
12129;SDS011;6128;59.340;18.040;2023-02-23T03:17:15;2.47;;;2.10;;
12129;SDS011;6128;59.340;18.040;2023-02-23T03:20:10;3.23;;;2.20;;
12129;SDS011;6128;59.340;18.040;2023-02-23T03:23:03;2.47;;;2.10;;
12129;SDS011;6128;59.340;18.040;2023-02-23T03:25:56;1.83;;;1.70;;
12129;SDS011;6128;59.340;18.040;2023-02-23T03:28:48;2.03;;;1.90;;
12129;SDS011;6128;59.340;18.040;2023-02-23T03:31:38;2.17;;;1.97;;
12129;SDS011;6128;59.340;18.040;2023-02-23T03:34:30;1.90;;;1.80;;
12129;SDS011;6128;59.340;18.040;2023-02-23T03:37:19;2.07;;;1.87;;
12129;SDS011;6128;59.340;18.040;2023-02-23T03:40:09;2.30;;;2.10;;
12129;SDS011;6128;59.340;18.040;2023-02-23T03:43:03;2.70;;;2.00;;
12129;SDS011;6128;59.340;18.040;2023-02-23T03:45:50;6.80;;;2.30;;
12129;SDS011;6128;59.340;18.040;2023-02-23T03:48:38;2.90;;;2.03;;
12129;SDS011;6128;59.340;18.040;2023-02-23T03:51:26;2.73;;;2.20;;
12129;SDS011;6128;59.340;18.040;2023-02-23T03:54:14;2.23;;;1.80;;
12129;SDS011;6128;59.340;18.040;2023-02-23T03:57:03;2.63;;;2.10;;
12129;SDS011;6128;59.340;18.040;2023-02-23T03:59:52;2.30;;;2.10;;
12129;SDS011;6128;59.340;18.040;2023-02-23T04:02:40;1.97;;;1.80;;
12129;SDS011;6128;59.340;18.040;2023-02-23T04:05:28;2.10;;;1.93;;
12129;SDS011;6128;59.340;18.040;2023-02-23T04:08:14;2.77;;;2.57;;
12129;SDS011;6128;59.340;18.040;2023-02-23T04:11:06;2.00;;;1.87;;
12129;SDS011;6128;59.340;18.040;2023-02-23T04:13:57;2.77;;;2.00;;
12129;SDS011;6128;59.340;18.040;2023-02-23T04:16:28;1.97;;;1.87;;
12129;SDS011;6128;59.340;18.040;2023-02-23T04:18:56;3.73;;;2.20;;
12129;SDS011;6128;59.340;18.040;2023-02-23T04:21:24;2.80;;;2.00;;
12129;SDS011;6128;59.340;18.040;2023-02-23T04:23:52;2.50;;;1.90;;
12129;SDS011;6128;59.340;18.040;2023-02-23T04:26:19;3.33;;;2.30;;
12129;SDS011;6128;59.340;18.040;2023-02-23T04:28:46;2.90;;;1.83;;
12129;SDS011;6128;59.340;18.040;2023-02-23T04:31:13;1.67;;;1.57;;
12129;SDS011;6128;59.340;18.040;2023-02-23T04:33:44;2.70;;;2.43;;
12129;SDS011;6128;59.340;18.040;2023-02-23T04:36:11;2.07;;;1.87;;
12129;SDS011;6128;59.340;18.040;2023-02-23T04:38:38;4.13;;;3.30;;
12129;SDS011;6128;59.340;18.040;2023-02-23T04:41:05;2.87;;;2.10;;
12129;SDS011;6128;59.340;18.040;2023-02-23T04:43:32;2.97;;;1.77;;
12129;SDS011;6128;59.340;18.040;2023-02-23T04:45:59;2.20;;;2.00;;
12129;SDS011;6128;59.340;18.040;2023-02-23T04:48:29;2.53;;;2.10;;
12129;SDS011;6128;59.340;18.040;2023-02-23T04:50:58;2.50;;;2.17;;
12129;SDS011;6128;59.340;18.040;2023-02-23T04:53:27;2.20;;;2.00;;
12129;SDS011;6128;59.340;18.040;2023-02-23T04:55:55;2.40;;;2.10;;
12129;SDS011;6128;59.340;18.040;2023-02-23T04:58:22;2.13;;;1.93;;
12129;SDS011;6128;59.340;18.040;2023-02-23T05:00:49;3.33;;;2.20;;
12129;SDS011;6128;59.340;18.040;2023-02-23T05:03:16;2.50;;;2.30;;
12129;SDS011;6128;59.340;18.040;2023-02-23T05:05:43;2.13;;;1.90;;
12129;SDS011;6128;59.340;18.040;2023-02-23T05:08:12;2.40;;;2.20;;
12129;SDS011;6128;59.340;18.040;2023-02-23T05:10:39;3.17;;;2.50;;
12129;SDS011;6128;59.340;18.040;2023-02-23T05:13:06;3.10;;;2.10;;
12129;SDS011;6128;59.340;18.040;2023-02-23T05:15:33;3.20;;;2.40;;
12129;SDS011;6128;59.340;18.040;2023-02-23T05:18:01;3.13;;;2.27;;
12129;SDS011;6128;59.340;18.040;2023-02-23T05:20:28;3.07;;;2.00;;
12129;SDS011;6128;59.340;18.040;2023-02-23T05:22:55;3.70;;;2.30;;
12129;SDS011;6128;59.340;18.040;2023-02-23T05:25:24;2.90;;;2.20;;
12129;SDS011;6128;59.340;18.040;2023-02-23T05:27:52;2.50;;;2.20;;
12129;SDS011;6128;59.340;18.040;2023-02-23T05:30:19;2.17;;;2.03;;
12129;SDS011;6128;59.340;18.040;2023-02-23T05:32:46;2.53;;;2.27;;
12129;SDS011;6128;59.340;18.040;2023-02-23T05:35:15;2.37;;;2.00;;
12129;SDS011;6128;59.340;18.040;2023-02-23T05:37:42;2.43;;;2.23;;
12129;SDS011;6128;59.340;18.040;2023-02-23T05:40:12;2.80;;;2.60;;
12129;SDS011;6128;59.340;18.040;2023-02-23T05:42:41;2.50;;;1.93;;
12129;SDS011;6128;59.340;18.040;2023-02-23T05:45:09;2.50;;;2.10;;
12129;SDS011;6128;59.340;18.040;2023-02-23T05:47:36;2.70;;;1.90;;
12129;SDS011;6128;59.340;18.040;2023-02-23T05:50:04;2.73;;;2.30;;
12129;SDS011;6128;59.340;18.040;2023-02-23T05:52:31;2.73;;;2.13;;
12129;SDS011;6128;59.340;18.040;2023-02-23T05:55:02;2.13;;;1.70;;
12129;SDS011;6128;59.340;18.040;2023-02-23T05:57:30;2.20;;;2.00;;
12129;SDS011;6128;59.340;18.040;2023-02-23T05:59:59;3.00;;;2.20;;
12129;SDS011;6128;59.340;18.040;2023-02-23T06:02:26;2.40;;;2.20;;
12129;SDS011;6128;59.340;18.040;2023-02-23T06:04:53;2.20;;;2.00;;
12129;SDS011;6128;59.340;18.040;2023-02-23T06:07:21;2.40;;;1.90;;
12129;SDS011;6128;59.340;18.040;2023-02-23T06:09:48;2.80;;;2.40;;
12129;SDS011;6128;59.340;18.040;2023-02-23T06:12:15;2.80;;;2.47;;
12129;SDS011;6128;59.340;18.040;2023-02-23T06:14:42;2.43;;;2.07;;
12129;SDS011;6128;59.340;18.040;2023-02-23T06:17:13;3.93;;;2.60;;
12129;SDS011;6128;59.340;18.040;2023-02-23T06:19:41;3.57;;;2.30;;
12129;SDS011;6128;59.340;18.040;2023-02-23T06:22:08;2.60;;;2.17;;
12129;SDS011;6128;59.340;18.040;2023-02-23T06:24:35;3.30;;;2.73;;
12129;SDS011;6128;59.340;18.040;2023-02-23T06:27:02;2.90;;;2.20;;
12129;SDS011;6128;59.340;18.040;2023-02-23T06:29:29;2.47;;;2.13;;
12129;SDS011;6128;59.340;18.040;2023-02-23T06:31:57;2.23;;;2.03;;
12129;SDS011;6128;59.340;18.040;2023-02-23T06:34:25;2.77;;;2.20;;
12129;SDS011;6128;59.340;18.040;2023-02-23T06:36:53;2.60;;;2.00;;
12129;SDS011;6128;59.340;18.040;2023-02-23T06:39:23;2.53;;;2.33;;
12129;SDS011;6128;59.340;18.040;2023-02-23T06:41:50;3.23;;;2.93;;
12129;SDS011;6128;59.340;18.040;2023-02-23T06:44:18;2.40;;;2.20;;
12129;SDS011;6128;59.340;18.040;2023-02-23T06:46:46;2.23;;;2.00;;
12129;SDS011;6128;59.340;18.040;2023-02-23T06:49:13;3.17;;;2.33;;
12129;SDS011;6128;59.340;18.040;2023-02-23T06:51:44;2.43;;;2.23;;
12129;SDS011;6128;59.340;18.040;2023-02-23T06:54:14;2.67;;;2.20;;
12129;SDS011;6128;59.340;18.040;2023-02-23T06:56:41;3.03;;;2.30;;
12129;SDS011;6128;59.340;18.040;2023-02-23T06:59:08;2.67;;;2.17;;
12129;SDS011;6128;59.340;18.040;2023-02-23T07:01:35;3.17;;;2.07;;
12129;SDS011;6128;59.340;18.040;2023-02-23T07:04:03;2.23;;;2.03;;
12129;SDS011;6128;59.340;18.040;2023-02-23T07:06:30;2.67;;;1.93;;
12129;SDS011;6128;59.340;18.040;2023-02-23T07:08:59;2.40;;;2.13;;
12129;SDS011;6128;59.340;18.040;2023-02-23T07:11:26;2.13;;;1.93;;
12129;SDS011;6128;59.340;18.040;2023-02-23T07:13:56;2.60;;;2.20;;
12129;SDS011;6128;59.340;18.040;2023-02-23T07:16:24;2.10;;;1.90;;
12129;SDS011;6128;59.340;18.040;2023-02-23T07:18:51;2.53;;;2.00;;
12129;SDS011;6128;59.340;18.040;2023-02-23T07:21:22;2.17;;;1.97;;
12129;SDS011;6128;59.340;18.040;2023-02-23T07:23:49;2.00;;;1.80;;
12129;SDS011;6128;59.340;18.040;2023-02-23T07:26:17;3.07;;;2.20;;
12129;SDS011;6128;59.340;18.040;2023-02-23T07:28:45;2.47;;;2.20;;
12129;SDS011;6128;59.340;18.040;2023-02-23T07:31:12;3.73;;;2.10;;
12129;SDS011;6128;59.340;18.040;2023-02-23T07:33:39;2.30;;;2.00;;
12129;SDS011;6128;59.340;18.040;2023-02-23T07:36:06;2.27;;;1.97;;
12129;SDS011;6128;59.340;18.040;2023-02-23T07:38:34;2.63;;;2.43;;
12129;SDS011;6128;59.340;18.040;2023-02-23T07:41:02;2.37;;;1.93;;
12129;SDS011;6128;59.340;18.040;2023-02-23T07:43:31;2.20;;;2.00;;
12129;SDS011;6128;59.340;18.040;2023-02-23T07:45:58;6.33;;;2.30;;
12129;SDS011;6128;59.340;18.040;2023-02-23T07:48:26;2.83;;;1.87;;
12129;SDS011;6128;59.340;18.040;2023-02-23T07:50:53;2.50;;;2.30;;
12129;SDS011;6128;59.340;18.040;2023-02-23T07:53:20;2.37;;;2.07;;
12129;SDS011;6128;59.340;18.040;2023-02-23T07:55:54;2.00;;;1.60;;
12129;SDS011;6128;59.340;18.040;2023-02-23T07:58:21;2.27;;;1.77;;
12129;SDS011;6128;59.340;18.040;2023-02-23T08:00:50;1.87;;;1.57;;
12129;SDS011;6128;59.340;18.040;2023-02-23T08:03:17;3.03;;;1.97;;
12129;SDS011;6128;59.340;18.040;2023-02-23T08:05:47;2.27;;;1.83;;
12129;SDS011;6128;59.340;18.040;2023-02-23T08:08:14;1.97;;;1.67;;
12129;SDS011;6128;59.340;18.040;2023-02-23T08:10:41;3.00;;;1.60;;
12129;SDS011;6128;59.340;18.040;2023-02-23T08:13:09;1.70;;;1.60;;
12129;SDS011;6128;59.340;18.040;2023-02-23T08:15:36;1.90;;;1.80;;
12129;SDS011;6128;59.340;18.040;2023-02-23T08:18:05;1.67;;;1.40;;
12129;SDS011;6128;59.340;18.040;2023-02-23T08:20:32;1.70;;;1.60;;
12129;SDS011;6128;59.340;18.040;2023-02-23T08:22:59;2.10;;;1.70;;
12129;SDS011;6128;59.340;18.040;2023-02-23T08:25:29;2.27;;;1.80;;
12129;SDS011;6128;59.340;18.040;2023-02-23T08:27:56;3.03;;;1.83;;
12129;SDS011;6128;59.340;18.040;2023-02-23T08:30:28;2.03;;;1.80;;
12129;SDS011;6128;59.340;18.040;2023-02-23T08:32:56;1.83;;;1.73;;
12129;SDS011;6128;59.340;18.040;2023-02-23T08:35:25;2.33;;;1.60;;
12129;SDS011;6128;59.340;18.040;2023-02-23T08:37:52;1.90;;;1.53;;
12129;SDS011;6128;59.340;18.040;2023-02-23T08:40:21;3.13;;;1.63;;
12129;SDS011;6128;59.340;18.040;2023-02-23T08:42:49;1.30;;;1.20;;
12129;SDS011;6128;59.340;18.040;2023-02-23T08:45:17;1.73;;;1.33;;
12129;SDS011;6128;59.340;18.040;2023-02-23T08:47:44;1.63;;;1.40;;
12129;SDS011;6128;59.340;18.040;2023-02-23T08:50:12;1.90;;;1.33;;
12129;SDS011;6128;59.340;18.040;2023-02-23T08:52:41;1.70;;;1.50;;
12129;SDS011;6128;59.340;18.040;2023-02-23T08:55:08;1.30;;;1.10;;
12129;SDS011;6128;59.340;18.040;2023-02-23T08:57:38;1.80;;;1.30;;
12129;SDS011;6128;59.340;18.040;2023-02-23T09:00:05;3.63;;;1.60;;
12129;SDS011;6128;59.340;18.040;2023-02-23T09:02:38;1.83;;;1.67;;
12129;SDS011;6128;59.340;18.040;2023-02-23T09:05:06;1.50;;;1.37;;
12129;SDS011;6128;59.340;18.040;2023-02-23T09:07:36;3.27;;;1.30;;
12129;SDS011;6128;59.340;18.040;2023-02-23T09:10:05;1.80;;;1.70;;
12129;SDS011;6128;59.340;18.040;2023-02-23T09:12:34;1.40;;;1.30;;
12129;SDS011;6128;59.340;18.040;2023-02-23T09:15:01;2.00;;;1.70;;
12129;SDS011;6128;59.340;18.040;2023-02-23T09:17:28;1.67;;;1.47;;
12129;SDS011;6128;59.340;18.040;2023-02-23T09:19:56;2.80;;;1.90;;
12129;SDS011;6128;59.340;18.040;2023-02-23T09:22:23;1.70;;;1.60;;
12129;SDS011;6128;59.340;18.040;2023-02-23T09:24:50;1.70;;;1.60;;
12129;SDS011;6128;59.340;18.040;2023-02-23T09:27:19;2.03;;;1.67;;
12129;SDS011;6128;59.340;18.040;2023-02-23T09:29:48;2.07;;;1.87;;
12129;SDS011;6128;59.340;18.040;2023-02-23T09:32:16;2.63;;;2.00;;
12129;SDS011;6128;59.340;18.040;2023-02-23T09:34:43;1.90;;;1.70;;
12129;SDS011;6128;59.340;18.040;2023-02-23T09:37:11;2.10;;;1.90;;
12129;SDS011;6128;59.340;18.040;2023-02-23T09:39:38;2.70;;;1.80;;
12129;SDS011;6128;59.340;18.040;2023-02-23T09:42:14;1.70;;;1.60;;
12129;SDS011;6128;59.340;18.040;2023-02-23T09:44:57;1.97;;;1.87;;
12129;SDS011;6128;59.340;18.040;2023-02-23T09:47:32;1.70;;;1.60;;
12129;SDS011;6128;59.340;18.040;2023-02-23T09:50:12;2.47;;;2.00;;
12129;SDS011;6128;59.340;18.040;2023-02-23T09:52:44;2.50;;;2.23;;
12129;SDS011;6128;59.340;18.040;2023-02-23T09:55:14;3.43;;;2.37;;
12129;SDS011;6128;59.340;18.040;2023-02-23T09:57:44;2.70;;;2.43;;
12129;SDS011;6128;59.340;18.040;2023-02-23T10:00:15;2.50;;;2.07;;
12129;SDS011;6128;59.340;18.040;2023-02-23T10:02:56;2.40;;;2.20;;
12129;SDS011;6128;59.340;18.040;2023-02-23T10:05:29;2.23;;;1.80;;
12129;SDS011;6128;59.340;18.040;2023-02-23T10:08:00;2.30;;;2.10;;
12129;SDS011;6128;59.340;18.040;2023-02-23T10:10:35;1.97;;;1.70;;
12129;SDS011;6128;59.340;18.040;2023-02-23T10:13:10;2.33;;;2.13;;
12129;SDS011;6128;59.340;18.040;2023-02-23T10:15:46;2.00;;;1.77;;
12129;SDS011;6128;59.340;18.040;2023-02-23T10:18:23;2.20;;;2.00;;
12129;SDS011;6128;59.340;18.040;2023-02-23T10:21:00;2.60;;;2.23;;
12129;SDS011;6128;59.340;18.040;2023-02-23T10:23:35;2.67;;;2.20;;
12129;SDS011;6128;59.340;18.040;2023-02-23T10:26:10;2.40;;;1.60;;
12129;SDS011;6128;59.340;18.040;2023-02-23T10:28:44;2.37;;;1.80;;
12129;SDS011;6128;59.340;18.040;2023-02-23T10:31:18;2.23;;;2.00;;
12129;SDS011;6128;59.340;18.040;2023-02-23T10:33:53;2.57;;;2.10;;
12129;SDS011;6128;59.340;18.040;2023-02-23T10:36:29;2.27;;;1.73;;
12129;SDS011;6128;59.340;18.040;2023-02-23T10:39:02;2.67;;;2.00;;
12129;SDS011;6128;59.340;18.040;2023-02-23T10:41:32;3.30;;;1.90;;
12129;SDS011;6128;59.340;18.040;2023-02-23T10:44:01;2.10;;;1.90;;
12129;SDS011;6128;59.340;18.040;2023-02-23T10:46:34;2.37;;;2.17;;
12129;SDS011;6128;59.340;18.040;2023-02-23T10:49:03;2.57;;;2.33;;
12129;SDS011;6128;59.340;18.040;2023-02-23T10:51:35;2.30;;;2.10;;
12129;SDS011;6128;59.340;18.040;2023-02-23T10:57:03;2.20;;;1.97;;
12129;SDS011;6128;59.340;18.040;2023-02-23T10:59:34;2.00;;;1.90;;
12129;SDS011;6128;59.340;18.040;2023-02-23T11:02:14;3.03;;;2.00;;
12129;SDS011;6128;59.340;18.040;2023-02-23T11:04:52;2.30;;;2.10;;
12129;SDS011;6128;59.340;18.040;2023-02-23T11:07:22;2.20;;;2.00;;
12129;SDS011;6128;59.340;18.040;2023-02-23T11:09:53;2.50;;;2.30;;
12129;SDS011;6128;59.340;18.040;2023-02-23T11:12:24;2.77;;;2.40;;
12129;SDS011;6128;59.340;18.040;2023-02-23T11:15:20;2.00;;;1.90;;
12129;SDS011;6128;59.340;18.040;2023-02-23T11:17:54;2.60;;;2.00;;
12129;SDS011;6128;59.340;18.040;2023-02-23T11:20:24;2.60;;;2.40;;
12129;SDS011;6128;59.340;18.040;2023-02-23T11:22:54;2.50;;;2.30;;
12129;SDS011;6128;59.340;18.040;2023-02-23T11:25:24;2.00;;;1.80;;
12129;SDS011;6128;59.340;18.040;2023-02-23T11:27:54;3.00;;;2.50;;
12129;SDS011;6128;59.340;18.040;2023-02-23T11:30:24;2.87;;;2.60;;
12129;SDS011;6128;59.340;18.040;2023-02-23T11:32:57;3.30;;;3.00;;
12129;SDS011;6128;59.340;18.040;2023-02-23T11:35:33;4.13;;;2.57;;
12129;SDS011;6128;59.340;18.040;2023-02-23T11:38:07;2.53;;;2.30;;
12129;SDS011;6128;59.340;18.040;2023-02-23T11:40:42;2.80;;;2.10;;
12129;SDS011;6128;59.340;18.040;2023-02-23T11:43:25;2.67;;;2.20;;
12129;SDS011;6128;59.340;18.040;2023-02-23T11:45:54;2.10;;;2.00;;
12129;SDS011;6128;59.340;18.040;2023-02-23T11:48:25;2.87;;;2.67;;
12129;SDS011;6128;59.340;18.040;2023-02-23T11:50:54;3.17;;;2.53;;
12129;SDS011;6128;59.340;18.040;2023-02-23T11:53:25;2.50;;;2.30;;
12129;SDS011;6128;59.340;18.040;2023-02-23T11:55:57;3.27;;;2.23;;
12129;SDS011;6128;59.340;18.040;2023-02-23T11:58:29;3.10;;;2.13;;
12129;SDS011;6128;59.340;18.040;2023-02-23T12:01:02;2.87;;;2.30;;
12129;SDS011;6128;59.340;18.040;2023-02-23T12:03:36;2.17;;;1.97;;
12129;SDS011;6128;59.340;18.040;2023-02-23T12:06:09;2.40;;;2.20;;
12129;SDS011;6128;59.340;18.040;2023-02-23T12:08:38;2.80;;;2.47;;
12129;SDS011;6128;59.340;18.040;2023-02-23T12:11:10;2.97;;;2.43;;
12129;SDS011;6128;59.340;18.040;2023-02-23T12:13:43;3.17;;;2.33;;
12129;SDS011;6128;59.340;18.040;2023-02-23T12:16:16;3.03;;;2.50;;
12129;SDS011;6128;59.340;18.040;2023-02-23T12:18:46;2.50;;;2.30;;
12129;SDS011;6128;59.340;18.040;2023-02-23T12:21:25;2.60;;;2.40;;
12129;SDS011;6128;59.340;18.040;2023-02-23T12:24:02;2.33;;;2.13;;
12129;SDS011;6128;59.340;18.040;2023-02-23T12:26:40;2.50;;;2.30;;
12129;SDS011;6128;59.340;18.040;2023-02-23T12:29:15;2.30;;;2.10;;
12129;SDS011;6128;59.340;18.040;2023-02-23T12:31:50;2.50;;;2.30;;
12129;SDS011;6128;59.340;18.040;2023-02-23T12:34:23;2.60;;;2.40;;
12129;SDS011;6128;59.340;18.040;2023-02-23T12:36:57;2.57;;;2.37;;
12129;SDS011;6128;59.340;18.040;2023-02-23T12:39:31;2.27;;;2.07;;
12129;SDS011;6128;59.340;18.040;2023-02-23T12:42:05;2.77;;;2.37;;
12129;SDS011;6128;59.340;18.040;2023-02-23T12:44:40;4.83;;;2.47;;
12129;SDS011;6128;59.340;18.040;2023-02-23T12:47:15;2.33;;;2.07;;
12129;SDS011;6128;59.340;18.040;2023-02-23T12:49:50;2.83;;;2.57;;
12129;SDS011;6128;59.340;18.040;2023-02-23T12:52:23;2.63;;;2.03;;
12129;SDS011;6128;59.340;18.040;2023-02-23T12:54:53;2.10;;;1.87;;
12129;SDS011;6128;59.340;18.040;2023-02-23T12:57:23;2.73;;;2.43;;
12129;SDS011;6128;59.340;18.040;2023-02-23T13:05:49;4.13;;;2.50;;
12129;SDS011;6128;59.340;18.040;2023-02-23T13:08:23;3.77;;;3.27;;
12129;SDS011;6128;59.340;18.040;2023-02-23T13:11:02;2.87;;;2.67;;
12129;SDS011;6128;59.340;18.040;2023-02-23T13:13:38;3.33;;;2.70;;
12129;SDS011;6128;59.340;18.040;2023-02-23T13:16:14;3.00;;;2.50;;
12129;SDS011;6128;59.340;18.040;2023-02-23T13:19:02;3.57;;;2.93;;
12129;SDS011;6128;59.340;18.040;2023-02-23T13:21:37;3.57;;;2.87;;
12129;SDS011;6128;59.340;18.040;2023-02-23T13:24:07;3.73;;;2.50;;
12129;SDS011;6128;59.340;18.040;2023-02-23T13:26:41;2.77;;;2.50;;
12129;SDS011;6128;59.340;18.040;2023-02-23T13:29:19;2.93;;;2.60;;
12129;SDS011;6128;59.340;18.040;2023-02-23T13:31:55;3.13;;;2.77;;
12129;SDS011;6128;59.340;18.040;2023-02-23T13:34:26;3.80;;;2.60;;
12129;SDS011;6128;59.340;18.040;2023-02-23T13:36:56;3.40;;;3.00;;
12129;SDS011;6128;59.340;18.040;2023-02-23T13:39:42;2.73;;;2.47;;
12129;SDS011;6128;59.340;18.040;2023-02-23T13:42:26;3.17;;;2.87;;
12129;SDS011;6128;59.340;18.040;2023-02-23T13:45:17;3.27;;;2.77;;
12129;SDS011;6128;59.340;18.040;2023-02-23T13:48:04;3.00;;;2.60;;
12129;SDS011;6128;59.340;18.040;2023-02-23T13:50:41;4.33;;;2.90;;
12129;SDS011;6128;59.340;18.040;2023-02-23T13:53:31;4.97;;;3.67;;
12129;SDS011;6128;59.340;18.040;2023-02-23T13:56:04;2.80;;;2.60;;
12129;SDS011;6128;59.340;18.040;2023-02-23T13:58:34;2.80;;;2.60;;
12129;SDS011;6128;59.340;18.040;2023-02-23T14:01:03;2.83;;;2.63;;
12129;SDS011;6128;59.340;18.040;2023-02-23T14:03:38;3.13;;;2.43;;
12129;SDS011;6128;59.340;18.040;2023-02-23T14:06:12;2.83;;;2.60;;
12129;SDS011;6128;59.340;18.040;2023-02-23T14:08:41;3.20;;;2.70;;
12129;SDS011;6128;59.340;18.040;2023-02-23T14:11:17;2.77;;;2.37;;
12129;SDS011;6128;59.340;18.040;2023-02-23T14:13:58;2.93;;;2.43;;
12129;SDS011;6128;59.340;18.040;2023-02-23T14:16:27;2.80;;;2.60;;
12129;SDS011;6128;59.340;18.040;2023-02-23T14:18:56;3.00;;;2.70;;
12129;SDS011;6128;59.340;18.040;2023-02-23T14:21:36;2.90;;;2.70;;
12129;SDS011;6128;59.340;18.040;2023-02-23T14:24:18;2.67;;;2.43;;
12129;SDS011;6128;59.340;18.040;2023-02-23T14:32:42;3.17;;;2.83;;
12129;SDS011;6128;59.340;18.040;2023-02-23T14:38:10;3.77;;;3.33;;
12129;SDS011;6128;59.340;18.040;2023-02-23T14:40:44;3.30;;;3.00;;
12129;SDS011;6128;59.340;18.040;2023-02-23T14:46:24;2.60;;;2.40;;
12129;SDS011;6128;59.340;18.040;2023-02-23T14:48:56;3.00;;;2.80;;
12129;SDS011;6128;59.340;18.040;2023-02-23T14:51:29;3.40;;;3.10;;
12129;SDS011;6128;59.340;18.040;2023-02-23T14:54:19;3.43;;;3.13;;
12129;SDS011;6128;59.340;18.040;2023-02-23T14:56:55;3.00;;;2.80;;
12129;SDS011;6128;59.340;18.040;2023-02-23T14:59:25;4.70;;;4.30;;
12129;SDS011;6128;59.340;18.040;2023-02-23T15:01:54;4.47;;;2.97;;
12129;SDS011;6128;59.340;18.040;2023-02-23T15:04:27;2.73;;;2.53;;
12129;SDS011;6128;59.340;18.040;2023-02-23T15:06:56;2.73;;;2.53;;
12129;SDS011;6128;59.340;18.040;2023-02-23T15:09:31;8.87;;;4.30;;
12129;SDS011;6128;59.340;18.040;2023-02-23T15:12:04;4.30;;;3.90;;
12129;SDS011;6128;59.340;18.040;2023-02-23T15:14:37;4.20;;;3.83;;
12129;SDS011;6128;59.340;18.040;2023-02-23T15:17:10;6.13;;;4.60;;
12129;SDS011;6128;59.340;18.040;2023-02-23T15:19:41;4.70;;;4.30;;
12129;SDS011;6128;59.340;18.040;2023-02-23T15:22:17;3.23;;;2.90;;
12129;SDS011;6128;59.340;18.040;2023-02-23T15:24:50;2.77;;;2.57;;
12129;SDS011;6128;59.340;18.040;2023-02-23T15:27:23;4.30;;;2.90;;
12129;SDS011;6128;59.340;18.040;2023-02-23T15:29:55;3.23;;;2.80;;
12129;SDS011;6128;59.340;18.040;2023-02-23T15:32:24;3.13;;;2.87;;
12129;SDS011;6128;59.340;18.040;2023-02-23T15:34:51;2.97;;;2.67;;
12129;SDS011;6128;59.340;18.040;2023-02-23T15:37:25;3.87;;;2.77;;
12129;SDS011;6128;59.340;18.040;2023-02-23T15:39:57;2.83;;;2.63;;
12129;SDS011;6128;59.340;18.040;2023-02-23T15:42:30;2.60;;;2.40;;
12129;SDS011;6128;59.340;18.040;2023-02-23T15:45:02;2.87;;;2.53;;
12129;SDS011;6128;59.340;18.040;2023-02-23T15:47:40;2.87;;;2.53;;